Time;durP1;ratioP1;P1;durP2;ratioP2;P2;SDS_P1;SDS_P2;PMS_P1;PMS_P2;Temp;Humidity;BMP_temperature;BMP_pressure;BME280_temperature;BME280_humidity;BME280_pressure;Samples;Min_cycle;Max_cycle;Signal;HPM_P1;HPM_P2
2021/11/09 00:00:08;;;;;;;11.63;8.20;;;;;;;4.58;80.86;101299.53;5021430;28;20925;-81
2021/11/09 00:02:33;;;;;;;15.43;7.93;;;;;;;4.55;80.88;101297.22;5024441;28;20407;-82
2021/11/09 00:05:00;;;;;;;18.00;7.73;;;;;;;4.51;80.26;101303.97;5021131;28;20394;-81
2021/11/09 00:07:33;;;;;;;13.37;7.77;;;;;;;4.46;80.37;101305.53;5023891;28;20439;-80
2021/11/09 00:09:59;;;;;;;14.25;7.18;;;;;;;4.45;80.46;101306.56;5023936;28;20898;-80
2021/11/09 00:12:36;;;;;;;14.68;7.75;;;;;;;4.44;80.68;101324.53;5031989;28;20403;-80
2021/11/09 00:15:05;;;;;;;15.07;8.00;;;;;;;4.44;80.71;101321.00;5023314;28;20490;-81
2021/11/09 00:17:30;;;;;;;14.80;7.25;;;;;;;4.44;80.72;101321.00;5027574;28;21001;-81
2021/11/09 00:19:55;;;;;;;12.57;7.67;;;;;;;4.45;80.73;101317.28;5024739;28;20411;-81
2021/11/09 00:22:22;;;;;;;15.60;9.00;;;;;;;4.45;80.68;101320.81;5030824;28;20904;-81
2021/11/09 00:24:48;;;;;;;15.27;10.25;;;;;;;4.46;80.50;101327.00;5016059;28;20750;-81
2021/11/09 00:27:14;;;;;;;20.20;12.73;;;;;;;4.46;80.96;101316.28;5023080;28;20502;-80
2021/11/09 00:29:39;;;;;;;20.40;13.03;;;;;;;4.45;80.56;101326.19;5024069;28;20864;-81
2021/11/09 00:32:07;;;;;;;20.30;13.47;;;;;;;4.45;80.51;101311.91;5023256;28;20401;-81
2021/11/09 00:34:32;;;;;;;20.02;13.70;;;;;;;4.48;80.61;101317.75;5031460;28;20407;-81
2021/11/09 00:36:58;;;;;;;21.83;14.17;;;;;;;4.49;80.36;101316.75;5023250;28;20430;-81
2021/11/09 00:39:23;;;;;;;26.00;13.57;;;;;;;4.48;80.43;101309.69;5023104;28;20394;-81
2021/11/09 00:41:49;;;;;;;21.98;13.10;;;;;;;4.45;80.52;101319.97;5030992;28;20403;-81
2021/11/09 00:44:14;;;;;;;21.02;12.13;;;;;;;4.42;80.59;101314.97;5015143;28;20482;-81
2021/11/09 00:46:40;;;;;;;16.30;10.90;;;;;;;4.41;80.66;101321.38;5017435;28;20449;-80
2021/11/09 00:49:05;;;;;;;18.30;11.23;;;;;;;4.40;80.68;101325.91;5021584;28;20397;-81
2021/11/09 00:51:31;;;;;;;15.67;10.90;;;;;;;4.39;80.77;101318.88;5024895;28;20399;-81
2021/11/09 00:53:56;;;;;;;17.17;10.30;;;;;;;4.42;80.79;101328.38;5015577;28;20883;-80
2021/11/09 00:56:22;;;;;;;15.15;9.65;;;;;;;4.43;80.75;101328.22;5031445;28;20395;-81
2021/11/09 00:58:47;;;;;;;17.60;9.80;;;;;;;4.43;80.26;101328.22;5016401;28;20452;-81
2021/11/09 01:01:12;;;;;;;14.90;9.27;;;;;;;4.45;80.66;101328.84;5022321;28;20420;-81
2021/11/09 01:03:38;;;;;;;14.00;7.47;;;;;;;4.44;80.75;101337.94;5028977;28;20453;-81
2021/11/09 01:06:04;;;;;;;12.15;8.85;;;;;;;4.47;80.87;101332.22;5025878;28;20416;-81
2021/11/09 01:08:30;;;;;;;14.67;8.37;;;;;;;4.48;80.69;101333.06;5018804;28;20395;-81
2021/11/09 01:10:56;;;;;;;14.95;8.88;;;;;;;4.42;80.83;101331.06;5031287;28;20422;-81
2021/11/09 01:13:25;;;;;;;12.88;8.20;;;;;;;4.38;80.87;101327.91;5015473;28;20401;-81
2021/11/09 01:15:52;;;;;;;19.25;8.82;;;;;;;4.32;80.52;101333.19;5026967;28;20403;-81
2021/11/09 01:18:27;;;;;;;13.65;8.35;;;;;;;4.31;80.44;101323.50;5030812;28;20482;-80
2021/11/09 01:20:53;;;;;;;16.23;8.00;;;;;;;4.31;80.50;101331.53;5024461;28;20391;-80
2021/11/09 01:23:19;;;;;;;11.80;7.68;;;;;;;4.28;80.40;101323.88;5030857;28;20498;-81
2021/11/09 01:25:45;;;;;;;15.65;8.73;;;;;;;4.26;79.86;101321.34;5013426;28;20403;-81
2021/11/09 01:28:10;;;;;;;14.50;8.77;;;;;;;4.27;80.25;101319.50;5019196;28;20889;-81
2021/11/09 01:30:36;;;;;;;12.87;8.27;;;;;;;4.27;80.53;101320.34;5030868;28;20432;-81
2021/11/09 01:33:03;;;;;;;14.40;8.73;;;;;;;4.28;79.97;101319.31;5015716;28;20490;-81
2021/11/09 01:35:28;;;;;;;13.45;7.90;;;;;;;4.29;80.09;101317.47;5028009;28;20422;-81
2021/11/09 01:37:53;;;;;;;14.43;7.43;;;;;;;4.31;80.09;101318.97;5017058;28;20888;-81
2021/11/09 01:40:23;;;;;;;14.37;7.47;;;;;;;4.33;80.29;101324.13;5014048;28;20492;-80
2021/11/09 01:42:49;;;;;;;19.17;9.65;;;;;;;4.32;79.75;101322.44;5026302;28;20391;-81
2021/11/09 01:45:15;;;;;;;17.03;8.67;;;;;;;4.30;79.99;101316.44;5018323;28;21035;-80
2021/11/09 01:47:42;;;;;;;18.75;8.88;;;;;;;4.32;80.24;101317.09;5030818;28;20425;-80
2021/11/09 01:50:09;;;;;;;12.00;7.35;;;;;;;4.29;79.82;101320.97;5030178;28;20399;-81
2021/11/09 01:52:36;;;;;;;13.02;7.45;;;;;;;4.29;79.59;101328.19;5018564;28;20791;-80
2021/11/09 01:55:06;;;;;;;10.93;6.32;;;;;;;4.29;80.01;101326.34;5016190;28;20420;-80
2021/11/09 01:57:31;;;;;;;14.57;6.78;;;;;;;4.29;80.00;101320.13;5034559;28;20383;-81
2021/11/09 01:59:58;;;;;;;12.32;6.43;;;;;;;4.29;79.54;101318.28;5030546;28;20399;-81
2021/11/09 02:02:24;;;;;;;11.98;6.53;;;;;;;4.30;78.99;101321.81;5034563;28;20391;-81
2021/11/09 02:04:49;;;;;;;12.03;6.80;;;;;;;4.26;78.32;101317.81;5023789;28;20466;-80
2021/11/09 02:07:15;;;;;;;9.00;6.03;;;;;;;4.19;78.24;101326.59;5020413;28;20419;-81
2021/11/09 02:09:40;;;;;;;10.85;7.15;;;;;;;4.14;77.77;101325.50;5031713;28;20415;-80
2021/11/09 02:12:06;;;;;;;11.70;6.67;;;;;;;4.06;77.97;101329.06;5034402;28;20387;-80
2021/11/09 02:14:31;;;;;;;9.23;6.20;;;;;;;4.03;79.06;101332.13;5023663;28;20493;-80
2021/11/09 02:16:56;;;;;;;13.40;6.57;;;;;;;4.02;78.97;101329.59;5019334;28;20395;-81
2021/11/09 02:19:22;;;;;;;12.63;6.83;;;;;;;4.01;79.25;101327.97;5033064;28;20761;-81
2021/11/09 02:21:47;;;;;;;14.38;6.97;;;;;;;3.97;79.64;101327.50;5032985;28;20387;-81
2021/11/09 02:24:13;;;;;;;15.13;7.00;;;;;;;3.98;79.83;101328.31;5017656;28;20763;-81
2021/11/09 02:26:39;;;;;;;12.13;6.80;;;;;;;3.96;80.10;101323.13;5033859;28;20490;-81
2021/11/09 02:29:04;;;;;;;14.55;7.22;;;;;;;4.00;80.14;101332.50;5026373;28;20883;-81
2021/11/09 02:31:30;;;;;;;13.40;7.30;;;;;;;4.01;80.22;101331.47;5024564;28;20411;-81
2021/11/09 02:33:56;;;;;;;14.93;7.68;;;;;;;4.00;80.42;101334.34;5024835;28;20407;-81
2021/11/09 02:36:22;;;;;;;15.40;8.00;;;;;;;3.98;80.38;101333.69;5033904;28;20438;-81
2021/11/09 02:38:48;;;;;;;11.70;7.20;;;;;;;3.96;80.10;101335.69;5033862;28;20489;-81
2021/11/09 02:41:14;;;;;;;11.97;7.20;;;;;;;3.95;80.10;101337.53;5028637;28;20878;-80
2021/11/09 02:43:39;;;;;;;18.77;8.55;;;;;;;3.96;80.11;101341.91;5032952;28;20414;-80
2021/11/09 02:48:56;;;;;;;13.85;7.80;;;;;;;4.01;80.72;101346.75;5020893;28;20489;-81
2021/11/09 02:51:30;;;;;;;18.65;8.43;;;;;;;4.02;80.60;101341.19;5031995;28;20486;-81
2021/11/09 02:54:02;;;;;;;15.32;7.35;;;;;;;4.06;80.89;101344.34;5016232;28;20478;-80
2021/11/09 02:56:34;;;;;;;14.02;7.75;;;;;;;4.06;80.91;101344.34;5018731;28;20817;-80
2021/11/09 03:01:38;;;;;;;12.23;7.13;;;;;;;4.05;80.77;101346.19;5018133;28;20416;-80
2021/11/09 03:07:00;;;;;;;13.98;7.45;;;;;;;4.04;80.88;101343.69;5021619;28;20414;-80
2021/11/09 03:12:17;;;;;;;16.08;7.30;;;;;;;4.03;81.39;101340.16;5007577;28;20413;-80
2021/11/09 03:14:43;;;;;;;14.47;7.77;;;;;;;4.05;81.25;101337.31;5031843;28;20866;-81
2021/11/09 03:17:36;;;;;;;14.40;7.30;;;;;;;4.02;81.18;101337.66;5032998;28;20449;-81
2021/11/09 03:20:00;;;;;;;15.52;8.48;;;;;;;4.06;81.29;101355.06;5018297;28;20433;-81
2021/11/09 03:46:55;;;;;;;13.83;7.30;;;;;;;4.00;81.14;101328.97;5016727;28;20416;-80
2021/11/09 03:49:24;;;;;;;18.10;7.78;;;;;;;4.00;80.87;101327.13;5021454;28;20890;-81
2021/11/09 03:51:50;;;;;;;14.73;7.40;;;;;;;3.99;81.01;101333.50;5032335;28;20399;-81
2021/11/09 03:54:18;;;;;;;15.97;7.37;;;;;;;3.98;81.12;101334.53;5027956;28;20412;-80
2021/11/09 03:56:51;;;;;;;12.93;7.70;;;;;;;3.98;81.14;101341.75;5028807;28;20396;-81
2021/11/09 03:59:28;;;;;;;17.42;7.38;;;;;;;3.96;80.75;101339.22;5025991;28;20404;-81
2021/11/09 04:07:17;;;;;;;15.68;7.38;;;;;;;3.93;80.73;101331.53;5001801;28;20418;-81
2021/11/09 04:14:48;;;;;;;14.25;7.13;;;;;;;3.88;80.71;101335.78;5023477;28;20532;-80
2021/11/09 04:25:31;;;;;;;13.60;7.30;;;;;;;3.84;80.74;101331.78;5011422;28;20907;-80
2021/11/09 04:30:49;;;;;;;14.60;7.43;;;;;;;3.86;80.64;101327.91;5031135;28;20449;-81
2021/11/09 04:45:37;;;;;;;15.13;7.63;;;;;;;3.81;80.32;101338.34;5027939;28;20450;-81
2021/11/09 05:08:39;;;;;;;18.23;8.73;;;;;;;3.78;80.36;101346.75;5041531;28;20451;-80
2021/11/09 05:11:04;;;;;;;18.58;8.82;;;;;;;3.79;80.48;101342.22;5051338;28;20428;-80
2021/11/09 05:13:30;;;;;;;15.57;8.13;;;;;;;3.76;80.14;101342.56;5043914;28;20765;-81
2021/11/09 05:15:55;;;;;;;14.52;7.63;;;;;;;3.75;80.65;101346.28;5048203;28;20405;-81
2021/11/09 05:18:22;;;;;;;15.68;7.57;;;;;;;3.77;80.57;101355.81;5046415;28;20419;-80
2021/11/09 05:20:47;;;;;;;16.65;7.68;;;;;;;3.79;80.41;101351.09;5043625;28;20907;-81
2021/11/09 05:23:13;;;;;;;14.90;7.50;;;;;;;3.80;80.41;101355.44;5051011;28;20406;-81
2021/11/09 05:25:39;;;;;;;12.80;7.40;;;;;;;3.78;80.18;101353.97;5031369;28;20504;-81
2021/11/09 05:28:08;;;;;;;16.92;7.38;;;;;;;3.78;80.26;101349.44;5041762;28;20487;-80
2021/11/09 05:30:35;;;;;;;19.23;8.63;;;;;;;3.76;80.32;101351.44;5045062;28;20406;-81
2021/11/09 05:33:01;;;;;;;14.43;7.53;;;;;;;3.74;80.50;101353.47;5046773;28;20387;-81
2021/11/09 05:35:27;;;;;;;18.77;8.23;;;;;;;3.73;80.20;101362.53;5051056;28;20759;-81
2021/11/09 05:37:54;;;;;;;13.50;7.47;;;;;;;3.63;80.17;101357.41;5042284;28;20480;-80
2021/11/09 05:40:26;;;;;;;16.02;7.93;;;;;;;3.58;80.06;101361.63;5036826;28;20752;-81
2021/11/09 05:42:52;;;;;;;22.58;8.18;;;;;;;3.58;80.16;101365.16;5054142;28;20417;-80
2021/11/09 05:45:17;;;;;;;14.83;7.47;;;;;;;3.55;80.17;101365.50;5048283;28;20428;-80
2021/11/09 05:47:43;;;;;;;12.10;7.17;;;;;;;3.56;80.24;101367.16;5043872;28;20424;-81
2021/11/09 05:50:09;;;;;;;13.70;7.07;;;;;;;3.55;79.98;101370.03;5045507;28;20401;-81
2021/11/09 05:52:40;;;;;;;15.65;7.20;;;;;;;3.54;80.09;101368.34;5040597;28;20418;-80
2021/11/09 05:55:06;;;;;;;18.65;7.20;;;;;;;3.56;79.96;101379.72;5052031;28;20405;-80
2021/11/09 05:57:35;;;;;;;13.45;7.05;;;;;;;3.58;80.15;101377.72;5045022;28;20781;-80
2021/11/09 06:00:03;;;;;;;16.50;7.97;;;;;;;3.58;79.92;101378.56;5043850;28;20405;-80
2021/11/09 06:02:28;;;;;;;22.02;8.32;;;;;;;3.59;80.00;101374.84;5042311;28;20575;-80
2021/11/09 06:05:14;;;;;;;11.80;8.10;;;;;;;3.58;80.04;101372.34;5043615;28;20494;-80
2021/11/09 06:07:40;;;;;;;15.27;7.80;;;;;;;3.57;80.09;101384.09;5044468;28;20421;-80
2021/11/09 06:10:06;;;;;;;18.53;8.80;;;;;;;3.57;79.92;101390.28;5044195;28;20415;-80
2021/11/09 06:12:31;;;;;;;14.95;8.48;;;;;;;3.55;79.61;101400.34;5038406;28;20465;-80
2021/11/09 06:14:59;;;;;;;26.13;12.55;;;;;;;3.60;80.07;101403.31;5047664;28;22439;-81
2021/11/09 06:17:24;;;;;;;39.42;22.77;;;;;;;3.60;79.97;101395.28;5040488;28;20437;-80
2021/11/09 06:19:49;;;;;;;62.47;31.93;;;;;;;3.59;80.14;101401.66;5038645;28;20494;-80
2021/11/09 06:22:15;;;;;;;43.07;22.73;;;;;;;3.61;80.33;101404.16;5052875;28;20923;-80
2021/11/09 06:24:40;;;;;;;29.10;15.17;;;;;;;3.64;80.16;101409.16;5042420;28;20903;-81
2021/11/09 06:27:06;;;;;;;16.07;9.47;;;;;;;3.64;80.27;101410.00;5047085;28;20952;-80
2021/11/09 06:29:32;;;;;;;16.42;8.70;;;;;;;3.63;80.18;101416.38;5047428;28;20600;-80
2021/11/09 06:31:59;;;;;;;19.70;8.05;;;;;;;3.63;80.21;101421.72;5046149;28;20417;-79
2021/11/09 06:34:25;;;;;;;15.32;8.07;;;;;;;3.63;80.38;101415.53;5049980;28;20392;-81
2021/11/09 06:36:50;;;;;;;16.98;8.00;;;;;;;3.65;80.33;101425.06;5045162;28;20412;-80
2021/11/09 06:39:16;;;;;;;13.45;7.85;;;;;;;3.66;79.92;101431.25;5041939;28;20486;-79
2021/11/09 06:41:41;;;;;;;18.10;8.20;;;;;;;3.64;80.15;101434.13;5038250;28;20787;-80
2021/11/09 06:44:07;;;;;;;17.23;7.40;;;;;;;3.66;79.86;101426.75;5046373;28;20445;-80
2021/11/09 06:46:32;;;;;;;15.00;8.50;;;;;;;3.62;80.03;101438.81;5051876;28;20429;-79
2021/11/09 06:48:58;;;;;;;19.25;8.60;;;;;;;3.58;79.80;101437.53;5052470;28;20413;-80
2021/11/09 06:51:23;;;;;;;17.00;8.50;;;;;;;3.56;80.18;101439.53;5049510;28;20405;-80
2021/11/09 06:53:52;;;;;;;16.27;8.60;;;;;;;3.63;80.19;101453.06;5050076;28;20394;-79
2021/11/09 06:56:17;;;;;;;16.60;8.80;;;;;;;3.63;80.15;101450.38;5053023;28;20459;-80
2021/11/09 06:58:43;;;;;;;19.73;9.10;;;;;;;3.64;80.13;101452.91;5043683;28;20403;-80
2021/11/09 07:01:09;;;;;;;19.00;9.70;;;;;;;3.68;80.19;101453.38;5040727;28;20413;-80
2021/11/09 07:03:35;;;;;;;27.58;10.07;;;;;;;3.68;80.32;101458.75;5047270;28;20769;-81
2021/11/09 07:06:01;;;;;;;22.03;10.80;;;;;;;3.72;80.05;101464.59;5034853;28;20520;-81
2021/11/09 07:08:27;;;;;;;21.70;10.40;;;;;;;3.70;80.10;101459.41;5041235;28;20451;-80
2021/11/09 07:10:52;;;;;;;16.95;10.18;;;;;;;3.61;80.24;101458.63;5040947;28;20435;-80
2021/11/09 07:13:17;;;;;;;23.65;10.85;;;;;;;3.56;80.73;101458.28;5050137;28;20473;-80
2021/11/09 07:15:51;;;;;;;18.70;10.30;;;;;;;3.51;80.77;101459.81;5050348;28;20403;-79
2021/11/09 07:18:17;;;;;;;23.73;10.35;;;;;;;3.54;80.97;101464.84;5041595;28;20397;-81
2021/11/09 07:20:43;;;;;;;20.40;11.03;;;;;;;3.56;81.04;101460.97;5034838;28;20925;-81
2021/11/09 07:23:09;;;;;;;19.05;10.32;;;;;;;3.59;81.03;101467.81;5047086;28;20397;-81
2021/11/09 07:25:34;;;;;;;22.48;10.70;;;;;;;3.63;81.28;101474.50;5043339;28;20414;-79
2021/11/09 07:28:00;;;;;;;21.47;10.80;;;;;;;3.67;80.88;101475.81;5041531;28;21515;-80
2021/11/09 07:30:31;;;;;;;16.73;10.37;;;;;;;3.78;80.94;101478.13;5044571;28;20401;-80
2021/11/09 07:32:56;;;;;;;23.13;10.85;;;;;;;3.88;80.72;101483.28;5046734;28;20480;-80
2021/11/09 07:35:21;;;;;;;22.43;11.03;;;;;;;3.94;80.59;101488.75;5038743;28;20509;-79
2021/11/09 07:37:46;;;;;;;17.30;10.40;;;;;;;4.02;80.62;101486.00;5051367;28;20389;-79
2021/11/09 07:40:12;;;;;;;21.30;11.13;;;;;;;4.09;80.64;101484.28;5041740;28;20529;-79
2021/11/09 07:42:47;;;;;;;26.73;11.57;;;;;;;4.18;80.36;101485.09;5046687;28;20409;-79
2021/11/09 07:45:16;;;;;;;19.45;12.13;;;;;;;4.29;80.13;101489.19;5036513;28;20390;-79
2021/11/09 07:47:42;;;;;;;22.97;11.63;;;;;;;4.37;79.72;101491.81;5046263;28;20867;-80
2021/11/09 07:50:08;;;;;;;18.33;10.73;;;;;;;4.39;79.43;101484.41;5042336;28;20417;-79
2021/11/09 07:52:33;;;;;;;19.77;10.57;;;;;;;4.49;79.28;101488.53;5039404;28;20421;-80
2021/11/09 07:55:02;;;;;;;21.80;12.93;;;;;;;4.57;79.54;101483.09;5046510;28;20457;-79
2021/11/09 07:57:41;;;;;;;20.67;14.00;;;;;;;4.69;79.06;101486.19;5025918;28;20808;-79
2021/11/09 08:00:21;;;;;;;23.48;15.45;;;;;;;4.83;79.18;101490.75;5035958;28;20403;-80
2021/11/09 08:03:01;;;;;;;26.80;16.30;;;;;;;4.99;78.08;101490.59;5048330;28;20385;-80
2021/11/09 08:05:38;;;;;;;19.23;14.67;;;;;;;5.10;77.31;101487.44;5041407;28;20430;-79
2021/11/09 08:08:28;;;;;;;43.63;26.52;;;;;;;5.08;77.44;101480.59;5036947;28;20415;-80
2021/11/09 08:10:50;;;;;;;47.60;26.40;;;;;;;5.14;77.65;101480.69;5045511;28;20409;-79
2021/11/09 08:13:16;;;;;;;45.20;27.63;;;;;;;5.20;77.40;101476.44;5035369;28;20418;-79
2021/11/09 08:15:41;;;;;;;35.20;21.07;;;;;;;5.20;77.08;101484.50;5041711;28;20908;-79
2021/11/09 08:18:07;;;;;;;27.03;15.50;;;;;;;5.32;77.36;101482.16;5037244;28;20449;-80
2021/11/09 08:20:45;;;;;;;23.02;12.82;;;;;;;5.51;76.36;101486.97;5042121;28;20413;-80
2021/11/09 08:23:11;;;;;;;18.80;9.50;;;;;;;5.67;76.07;101479.53;5036975;28;20898;-80
2021/11/09 08:25:36;;;;;;;16.30;8.95;;;;;;;5.76;75.43;101477.59;5050002;28;20432;-80
2021/11/09 08:28:02;;;;;;;16.70;9.00;;;;;;;5.82;75.54;101487.59;5042720;28;20441;-80
2021/11/09 08:30:28;;;;;;;19.83;9.10;;;;;;;6.01;75.08;101483.47;5033359;28;20461;-79
2021/11/09 08:32:54;;;;;;;17.17;8.48;;;;;;;6.19;74.67;101482.03;5048286;28;20408;-79
2021/11/09 08:35:24;;;;;;;17.35;9.30;;;;;;;6.31;74.14;101476.13;5051463;28;20397;-80
2021/11/09 08:37:56;;;;;;;16.55;9.77;;;;;;;6.58;73.94;101478.06;5045858;28;20459;-80
2021/11/09 08:40:23;;;;;;;18.83;9.67;;;;;;;6.72;73.29;101474.44;5028968;28;20470;-80
2021/11/09 08:42:53;;;;;;;16.75;9.40;;;;;;;6.78;72.71;101477.16;5051223;28;20397;-80
2021/11/09 08:45:28;;;;;;;17.58;8.50;;;;;;;6.87;73.14;101472.50;5046708;28;20406;-80
2021/11/09 08:47:59;;;;;;;13.70;7.85;;;;;;;7.01;72.00;101476.13;5039195;28;20418;-80
2021/11/09 08:50:27;;;;;;;15.48;7.47;;;;;;;7.24;71.16;101468.59;5046572;28;20409;-80
2021/11/09 08:52:55;;;;;;;13.88;7.78;;;;;;;7.15;71.78;101470.59;5050372;28;20768;-79
2021/11/09 08:55:29;;;;;;;18.47;7.90;;;;;;;7.85;70.36;101466.78;5048584;28;20533;-80
2021/11/09 08:58:15;;;;;;;25.90;8.77;;;;;;;8.30;68.89;101460.69;5033698;28;20449;-80
2021/11/09 09:06:30;;;;;;;15.63;8.43;;;;;;;9.72;63.25;101472.56;5032364;28;20790;-80
2021/11/09 09:08:58;;;;;;;14.77;7.70;;;;;;;9.57;63.24;101460.34;5037615;28;20399;-81
2021/11/09 09:11:24;;;;;;;18.40;8.68;;;;;;;10.04;62.84;101457.22;5032107;28;20416;-80
2021/11/09 09:13:50;;;;;;;15.25;7.38;;;;;;;10.98;58.71;101454.44;5041557;28;20436;-80
2021/11/09 09:16:16;;;;;;;15.30;6.88;;;;;;;11.16;57.91;101467.22;5042965;28;20427;-80
2021/11/09 09:18:42;;;;;;;13.68;7.82;;;;;;;10.57;59.80;101459.59;5034668;28;20573;-80
2021/11/09 09:21:23;;;;;;;14.27;8.17;;;;;;;10.55;59.70;101473.38;5036833;28;20502;-80
2021/11/09 09:23:56;;;;;;;14.60;8.00;;;;;;;10.76;59.43;101459.44;5043900;28;20790;-81
2021/11/09 09:29:09;;;;;;;13.10;7.55;;;;;;;9.67;62.18;101471.56;5036240;28;20391;-79
2021/11/09 09:31:54;;;;;;;14.02;7.28;;;;;;;9.64;63.11;101469.28;5040060;28;20488;-79
2021/11/09 09:56:54;;;;;;;9.70;6.00;;;;;;;14.48;48.96;101471.91;5034552;28;20427;-80
2021/11/09 09:59:25;;;;;;;12.77;7.10;;;;;;;13.48;50.83;101465.25;5045916;28;20402;-81
2021/11/09 10:02:26;;;;;;;10.27;6.32;;;;;;;13.94;49.96;101456.13;5041863;28;20389;-81
2021/11/09 10:05:01;;;;;;;10.57;6.35;;;;;;;13.90;49.91;101454.94;5041338;28;20940;-81
2021/11/09 10:07:31;;;;;;;9.40;5.95;;;;;;;13.66;50.19;101454.22;5037742;28;20417;-81
2021/11/09 10:09:57;;;;;;;8.13;6.05;;;;;;;14.86;48.00;101441.13;5039077;28;20480;-81
2021/11/09 10:12:34;;;;;;;10.73;5.97;;;;;;;15.48;45.94;101444.53;5038521;28;20404;-80
2021/11/09 10:15:02;;;;;;;26.80;7.80;;;;;;;14.24;48.02;101443.06;5038995;28;20483;-81
2021/11/09 10:17:29;;;;;;;14.40;6.63;;;;;;;12.19;53.31;101438.16;5054389;28;20401;-80
2021/11/09 10:19:56;;;;;;;12.50;6.15;;;;;;;11.01;57.39;101434.16;5049737;28;20474;-80
2021/11/09 10:22:24;;;;;;;10.75;6.15;;;;;;;10.22;60.26;101430.25;5040455;28;20484;-80
2021/11/09 10:24:56;;;;;;;11.17;5.83;;;;;;;9.62;62.24;101428.88;5040091;28;20389;-81
2021/11/09 10:27:22;;;;;;;10.07;5.80;;;;;;;9.41;63.44;101429.19;5048068;28;20901;-81
2021/11/09 10:29:51;;;;;;;14.87;5.57;;;;;;;9.32;63.69;101422.34;5038739;28;20439;-80
2021/11/09 10:32:19;;;;;;;10.38;5.82;;;;;;;9.25;64.15;101435.88;5050745;28;20426;-80
2021/11/09 10:34:46;;;;;;;7.97;4.65;;;;;;;9.14;64.31;101425.75;5045713;28;20384;-80
2021/11/09 10:37:20;;;;;;;8.07;4.80;;;;;;;9.03;64.33;101425.53;5043402;28;20393;-80
2021/11/09 10:39:51;;;;;;;12.38;5.05;;;;;;;9.02;64.37;101419.34;5044418;28;20765;-80
2021/11/09 10:42:19;;;;;;;9.43;4.90;;;;;;;9.00;64.11;101409.75;5037719;28;20454;-80
2021/11/09 10:44:57;;;;;;;10.40;5.20;;;;;;;9.01;63.08;101416.81;5045588;28;20418;-80
2021/11/09 10:47:34;;;;;;;29.53;6.37;;;;;;;8.96;63.37;101417.44;5046056;28;20494;-80
2021/11/09 10:49:59;;;;;;;7.65;4.20;;;;;;;8.91;63.21;101417.25;5036965;28;20777;-81
2021/11/09 10:52:30;;;;;;;11.83;4.87;;;;;;;8.92;63.96;101416.22;5045756;28;20395;-80
2021/11/09 10:55:12;;;;;;;5.93;4.10;;;;;;;8.92;63.82;101413.53;5042864;28;20393;-80
2021/11/09 10:57:48;;;;;;;8.00;4.10;;;;;;;8.92;63.72;101401.88;5049194;28;20394;-81
2021/11/09 11:06:19;;;;;;;7.80;3.40;;;;;;;9.10;61.14;101393.91;5034198;28;20387;-79
2021/11/09 11:09:05;;;;;;;8.57;3.67;;;;;;;9.10;60.88;101393.91;5044285;28;20903;-79
2021/11/09 11:11:33;;;;;;;9.30;3.50;;;;;;;9.15;60.57;101391.41;5043273;28;20422;-79
2021/11/09 11:14:15;;;;;;;10.57;3.67;;;;;;;9.21;61.01;101394.09;5053246;28;20452;-79
2021/11/09 11:16:44;;;;;;;14.45;3.53;;;;;;;9.21;60.17;101391.41;5041148;28;20438;-78
2021/11/09 11:19:15;;;;;;;9.65;3.58;;;;;;;9.25;59.97;101386.41;5049110;28;20401;-79
2021/11/09 11:21:40;;;;;;;20.77;3.97;;;;;;;9.16;59.41;101385.78;5042452;28;20406;-80
2021/11/09 11:24:10;;;;;;;10.95;3.60;;;;;;;9.17;59.64;101375.81;5039386;28;20389;-79
2021/11/09 11:26:37;;;;;;;12.27;3.42;;;;;;;9.15;60.27;101381.44;5052474;28;20884;-78
2021/11/09 11:29:03;;;;;;;5.72;2.90;;;;;;;9.15;61.07;101384.16;5052409;28;20461;-79
2021/11/09 11:31:29;;;;;;;12.68;4.03;;;;;;;9.21;60.88;101382.44;5040893;28;20457;-79
2021/11/09 11:33:56;;;;;;;14.05;3.92;;;;;;;9.22;60.35;101376.81;5040933;28;20378;-79
2021/11/09 11:36:22;;;;;;;8.43;3.38;;;;;;;9.28;60.59;101369.75;5050566;28;20423;-78
2021/11/09 11:38:50;;;;;;;8.63;3.97;;;;;;;9.27;60.89;101362.66;5049204;28;20405;-79
2021/11/09 11:41:16;;;;;;;24.35;4.43;;;;;;;9.30;59.35;101373.03;5039944;28;20421;-78
2021/11/09 11:43:47;;;;;;;8.82;3.47;;;;;;;9.31;60.11;101370.13;5052495;28;20887;-79
2021/11/09 11:46:34;;;;;;;7.53;3.22;;;;;;;9.44;59.21;101368.41;5051637;28;20459;-79
2021/11/09 11:49:05;;;;;;;10.17;3.97;;;;;;;9.46;59.87;101363.59;5050268;28;20493;-78
2021/11/09 11:51:44;;;;;;;9.85;3.17;;;;;;;9.51;59.53;101364.63;5045154;28;20784;-79
2021/11/09 11:54:09;;;;;;;9.10;3.57;;;;;;;9.47;58.75;101362.56;5039436;28;20714;-79
2021/11/09 11:56:44;;;;;;;10.83;3.70;;;;;;;9.45;59.83;101365.47;5047943;28;20401;-79
2021/11/09 11:59:18;;;;;;;13.65;4.43;;;;;;;9.44;59.92;101353.00;5038460;28;20433;-79
2021/11/09 12:01:44;;;;;;;23.90;4.82;;;;;;;9.44;60.78;101350.31;5043368;28;20401;-78
2021/11/09 12:04:31;;;;;;;10.23;3.63;;;;;;;9.42;59.65;101343.47;5051475;28;20573;-79
2021/11/09 12:06:57;;;;;;;9.00;3.45;;;;;;;9.48;60.39;101337.19;5035383;28;20488;-78
2021/11/09 12:09:32;;;;;;;12.63;4.25;;;;;;;9.49;60.84;101338.81;5043293;28;20502;-79
2021/11/09 12:12:16;;;;;;;10.65;3.90;;;;;;;9.49;60.92;101336.13;5036776;28;20923;-79
2021/11/09 12:14:46;;;;;;;6.65;3.53;;;;;;;9.49;60.82;101328.84;5051158;28;20423;-79
2021/11/09 12:17:13;;;;;;;7.90;4.30;;;;;;;9.48;61.05;101326.34;5051720;28;20785;-78
2021/11/09 12:19:45;;;;;;;15.10;4.03;;;;;;;9.48;61.05;101324.50;5042419;28;20397;-77
2021/11/09 12:22:13;;;;;;;27.02;5.22;;;;;;;9.52;61.70;101330.28;5048233;28;20385;-77
2021/11/09 12:24:47;;;;;;;8.05;3.55;;;;;;;9.52;61.25;101319.44;5047320;28;20395;-76
2021/11/09 12:27:13;;;;;;;10.30;3.83;;;;;;;9.50;60.08;101316.97;5040616;28;20491;-78
2021/11/09 12:29:54;;;;;;;9.47;4.37;;;;;;;9.51;60.81;101312.41;5049908;28;20401;-78
2021/11/09 12:32:24;;;;;;;13.88;4.30;;;;;;;9.51;60.72;101324.06;5040767;28;20408;-80
2021/11/09 12:35:11;;;;;;;10.05;3.70;;;;;;;9.52;60.50;101327.56;5032951;28;20482;-78
2021/11/09 12:37:42;;;;;;;9.27;4.22;;;;;;;9.49;61.14;101318.00;5045032;28;20382;-78
2021/11/09 12:40:30;;;;;;;9.13;4.07;;;;;;;9.56;61.29;101320.69;5042644;28;20451;-78
2021/11/09 12:43:10;;;;;;;5.57;4.20;;;;;;;9.58;60.98;101311.28;5040099;28;20408;-78
2021/11/09 12:45:38;;;;;;;8.30;3.72;;;;;;;9.52;60.04;101317.56;5045532;28;20868;-78
2021/11/09 12:48:05;;;;;;;8.68;3.42;;;;;;;9.60;60.55;101311.91;5043433;28;20413;-77
2021/11/09 12:50:32;;;;;;;9.45;4.05;;;;;;;9.57;60.40;101306.09;5047775;28;20543;-77
2021/11/09 12:53:12;;;;;;;15.50;6.80;;;;;;;9.62;60.46;101303.56;5038984;28;20897;-77
2021/11/09 12:55:39;;;;;;;10.13;3.65;;;;;;;9.62;60.81;101306.28;5046940;28;20409;-77
2021/11/09 12:58:20;;;;;;;10.75;3.67;;;;;;;9.61;60.82;101308.19;5044951;28;20444;-78
2021/11/09 13:04:13;;;;;;;5.85;2.92;;;;;;;9.66;59.68;101302.09;5037702;28;20893;-77
2021/11/09 13:06:46;;;;;;;11.77;3.47;;;;;;;9.69;59.95;101288.13;5032614;28;20415;-78
2021/11/09 13:09:24;;;;;;;9.60;3.45;;;;;;;9.67;60.52;101303.75;5036739;28;20452;-77
2021/11/09 13:11:57;;;;;;;9.80;2.88;;;;;;;9.73;60.34;101292.06;5039592;28;20776;-78
2021/11/09 13:14:32;;;;;;;5.60;2.40;;;;;;;9.78;60.06;101289.53;5043890;28;20498;-77
2021/11/09 13:16:57;;;;;;;6.53;3.03;;;;;;;9.75;59.35;101293.47;5037616;28;20423;-79
2021/11/09 13:19:37;;;;;;;8.50;2.85;;;;;;;9.79;58.86;101280.34;5036616;28;20804;-78
2021/11/09 13:22:09;;;;;;;7.10;2.80;;;;;;;9.76;59.91;101281.63;5036395;28;20808;-77
2021/11/09 13:24:40;;;;;;;6.88;2.55;;;;;;;9.77;59.36;101279.75;5036959;28;20818;-79
2021/11/09 13:27:08;;;;;;;6.43;2.42;;;;;;;9.77;58.99;101282.44;5040966;28;20440;-78
2021/11/09 13:29:39;;;;;;;7.32;3.50;;;;;;;9.84;57.80;101285.94;5056484;28;20409;-77
2021/11/09 13:32:10;;;;;;;10.48;3.50;;;;;;;9.90;58.71;101285.88;5041002;28;20411;-78
2021/11/09 13:34:35;;;;;;;14.05;3.40;;;;;;;9.89;59.03;101278.81;5042925;28;20394;-79
2021/11/09 13:37:01;;;;;;;11.38;3.35;;;;;;;9.88;59.43;101282.56;5049499;28;20386;-78
2021/11/09 13:39:26;;;;;;;6.90;2.60;;;;;;;9.85;59.72;101274.03;5032690;28;20418;-78
2021/11/09 13:41:52;;;;;;;5.17;2.40;;;;;;;9.72;60.32;101269.56;5036208;28;20485;-78